KSDM/SDM METAR and TAF weather

Enter ICAO airport designator
Station Type Date Time Source
KSDM METAR 2020/01/22 17:53 UTC NOAA

KSDM 221753Z 33004KT FEW035 14/09 A3020 RMK AO2 SLP226 6//// T01440094 10144 20083 51005 PNO $


Station Type Date Time Source
KSDM Decoded METAR 2020/01/22 17:53 UTC NOAA

San Diego, Brown Field Municipal Airport, CA, United States (KSDM) 32-34-31N 116-59-35W 159M
Jan 22, 2020 - 12:53 PM EST / 2020.01.22 1753 UTC
Wind: from the NNW (330 degrees) at 5 MPH (4 KT):0
Sky conditions: mostly clear
Temperature: 57.9 F (14.4 C)
Dew Point: 48.9 F (9.4 C)
Relative Humidity: 71%
Pressure (altimeter): 30.2 in. Hg (1022 hPa)
Pressure tendency: 0.01 inches (0.5 hPa) higher than three hours ago
ob: KSDM 221753Z 33004KT FEW035 14/09 A3020 RMK AO2 SLP226 6//// T01440094 10144 20083 51005 PNO
cycle: 18

Station Type Date Time Source
KSDM TAF UTC NOAA

Error!

Example: see airport list